createdAt,value
2022-09-13T00:01:15.208Z,72.58
2022-09-13T00:03:43.507Z,71.26
2022-09-13T00:06:14.340Z,68.66
2022-09-13T00:08:42.946Z,69.42
2022-09-13T00:11:26.296Z,69.89
2022-09-13T00:13:55.567Z,71.70
2022-09-13T00:16:26.803Z,72.39
2022-09-13T00:18:55.862Z,71.97
2022-09-13T00:21:25.138Z,72.41
2022-09-13T00:23:54.566Z,71.62
2022-09-13T00:26:28.274Z,72.73
2022-09-13T00:28:58.666Z,70.60
2022-09-13T00:31:28.252Z,71.59
2022-09-13T00:33:58.822Z,72.56
2022-09-13T00:36:26.593Z,74.69
2022-09-13T00:38:54.539Z,71.16
2022-09-13T00:41:22.875Z,70.30
2022-09-13T00:43:53.923Z,74.19
2022-09-13T00:46:43.702Z,71.39
2022-09-13T00:49:17.120Z,70.81
2022-09-13T00:51:52.526Z,71.80
2022-09-13T00:54:25.508Z,70.85
2022-09-13T00:56:57.896Z,69.72
2022-09-13T00:59:54.883Z,68.63
2022-09-13T01:02:23.508Z,68.71
2022-09-13T01:04:51.329Z,74.52
2022-09-13T01:07:19.703Z,72.68
2022-09-13T01:09:50.727Z,73.01
2022-09-13T01:13:00.188Z,73.73
2022-09-13T01:15:28.337Z,72.59
2022-09-13T01:17:57.391Z,74.70
2022-09-13T01:20:52.950Z,78.79
2022-09-13T01:23:44.318Z,77.85
2022-09-13T01:26:36.099Z,80.61
2022-09-13T01:29:44.281Z,81.25
2022-09-13T01:32:42.913Z,78.82
2022-09-13T01:35:24.607Z,75.64
2022-09-13T01:38:29.530Z,75.13
2022-09-13T01:41:36.308Z,78.67
2022-09-13T01:44:22.457Z,78.41
2022-09-13T01:47:25.958Z,76.48
2022-09-13T01:50:28.186Z,79.70
2022-09-13T01:53:26.103Z,80.92
2022-09-13T01:56:01.125Z,79.50
2022-09-13T01:58:53.219Z,81.21
2022-09-13T02:01:34.393Z,81.09
2022-09-13T02:04:22.608Z,81.78
2022-09-13T02:07:05.801Z,81.81
2022-09-13T02:09:40.025Z,79.74
2022-09-13T02:12:22.289Z,77.01
2022-09-13T02:15:02.560Z,79.89
2022-09-13T02:17:47.295Z,83.32
2022-09-13T02:20:26.068Z,82.29
2022-09-13T02:22:59.774Z,82.79
2022-09-13T02:25:30.909Z,81.33
2022-09-13T02:28:03.638Z,80.04
2022-09-13T02:30:34.182Z,80.88
2022-09-13T02:33:08.923Z,80.92
2022-09-13T02:35:56.458Z,78.00
2022-09-13T02:38:50.458Z,78.16
2022-09-13T02:41:44.159Z,80.91
2022-09-13T02:44:24.102Z,80.63
2022-09-13T02:47:08.225Z,79.13
2022-09-13T02:50:19.771Z,78.53
2022-09-13T02:53:17.265Z,82.56
2022-09-13T02:55:54.103Z,82.19
2022-09-13T02:58:52.335Z,85.41
2022-09-13T03:01:21.828Z,86.02
2022-09-13T03:03:52.099Z,85.34
2022-09-13T03:06:24.946Z,81.85
2022-09-13T03:08:54.933Z,84.93
2022-09-13T03:11:31.889Z,78.69
2022-09-13T03:14:32.689Z,80.37
2022-09-13T03:17:21.200Z,80.50
2022-09-13T03:20:14.441Z,79.21
2022-09-13T03:23:19.545Z,77.78
2022-09-13T03:26:21.356Z,80.11
2022-09-13T03:29:01.575Z,78.62
2022-09-13T03:31:41.043Z,79.53
2022-09-13T03:34:51.105Z,77.13
2022-09-13T03:37:25.071Z,79.88
2022-09-13T03:40:13.840Z,81.71
2022-09-13T03:42:56.493Z,75.32
2022-09-13T03:45:30.380Z,79.10
2022-09-13T03:47:59.882Z,79.36
2022-09-13T03:50:28.287Z,75.66
2022-09-13T03:53:03.963Z,77.91
2022-09-13T03:55:35.580Z,77.55
2022-09-13T03:58:03.276Z,74.33
2022-09-13T04:00:30.981Z,73.53
2022-09-13T04:02:59.183Z,74.17
2022-09-13T04:05:27.360Z,72.96
2022-09-13T04:07:55.069Z,71.97
2022-09-13T04:10:24.675Z,71.27
2022-09-13T04:12:54.604Z,72.05
2022-09-13T04:15:22.420Z,71.63
2022-09-13T04:17:52.792Z,73.67
2022-09-13T04:20:21.101Z,75.52
2022-09-13T04:22:56.021Z,76.20
2022-09-13T04:25:24.904Z,72.09
2022-09-13T04:27:56.598Z,71.85
2022-09-13T04:30:24.724Z,76.36
2022-09-13T04:32:52.710Z,76.86
2022-09-13T04:35:20.505Z,76.32
2022-09-13T04:37:48.560Z,75.89
2022-09-13T04:40:16.375Z,74.46
2022-09-13T04:42:47.297Z,72.15
2022-09-13T04:45:15.471Z,69.72
2022-09-13T04:47:43.222Z,71.78
2022-09-13T04:50:10.973Z,72.03
2022-09-13T04:52:39.301Z,69.34
2022-09-13T04:55:07.759Z,69.89
2022-09-13T04:57:35.487Z,73.22
2022-09-13T05:00:05.050Z,73.63
2022-09-13T05:02:32.856Z,71.80
2022-09-13T05:05:00.681Z,72.93
2022-09-13T05:07:28.782Z,69.42
2022-09-13T05:09:56.568Z,74.66
2022-09-13T05:12:24.336Z,70.98
2022-09-13T05:14:52.524Z,72.63
2022-09-13T05:17:20.899Z,71.57
2022-09-13T05:19:49.712Z,69.50
2022-09-13T05:22:17.924Z,72.66
2022-09-13T05:24:48.641Z,69.29
2022-09-13T05:27:16.358Z,71.18
2022-09-13T05:29:44.512Z,72.97
2022-09-13T05:32:12.302Z,70.97
2022-09-13T05:34:40.265Z,69.18
2022-09-13T05:37:08.408Z,70.27
2022-09-13T05:40:00.340Z,71.79
2022-09-13T05:42:25.174Z,70.61
2022-09-13T05:44:52.945Z,73.69
2022-09-13T05:47:20.636Z,73.89
2022-09-13T05:50:08.934Z,72.74
2022-09-13T05:52:36.530Z,73.07
2022-09-13T05:55:07.521Z,71.83
2022-09-13T05:57:36.620Z,70.25
2022-09-13T06:00:05.298Z,69.56
2022-09-13T06:02:40.543Z,68.03
2022-09-13T06:05:13.296Z,68.66
2022-09-13T06:07:42.643Z,70.75
2022-09-13T06:10:11.647Z,68.92
2022-09-13T06:12:39.479Z,67.25
2022-09-13T06:15:08.199Z,67.60
2022-09-13T06:17:36.320Z,66.67
2022-09-13T06:22:50.779Z,64.89
2022-09-13T06:25:18.679Z,65.48
2022-09-13T06:27:46.510Z,64.98
2022-09-13T06:30:16.038Z,64.68
2022-09-13T06:32:43.814Z,65.43
2022-09-13T06:35:12.110Z,65.18
2022-09-13T06:37:40.236Z,64.13
2022-09-13T06:40:08.389Z,62.87
2022-09-13T06:42:37.294Z,61.15
2022-09-13T06:45:06.765Z,60.98
2022-09-13T06:47:34.586Z,60.91
2022-09-13T06:50:02.711Z,60.26
2022-09-13T06:52:31.062Z,58.03
2022-09-13T06:54:59.274Z,56.71
2022-09-13T06:57:30.185Z,56.36
2022-09-13T06:59:58.481Z,54.57
2022-09-13T07:02:26.874Z,54.89
2022-09-13T07:04:54.684Z,54.85
2022-09-13T07:07:22.785Z,54.79
2022-09-13T07:09:50.533Z,55.21
2022-09-13T07:12:20.568Z,55.57
2022-09-13T07:14:48.950Z,54.29
2022-09-13T07:17:16.711Z,55.61
2022-09-13T07:19:44.444Z,55.75
2022-09-13T07:22:12.496Z,53.81
2022-09-13T07:24:40.227Z,54.51
2022-09-13T07:27:07.976Z,53.64
2022-09-13T07:29:36.275Z,54.33
2022-09-13T07:32:04.159Z,50.30
2022-09-13T07:34:31.939Z,51.50
2022-09-13T07:36:59.970Z,50.97
2022-09-13T07:39:27.770Z,49.52
2022-09-13T07:41:55.500Z,50.57
2022-09-13T07:44:23.626Z,50.26
2022-09-13T07:46:51.466Z,50.15
2022-09-13T07:49:20.041Z,50.34
2022-09-13T07:51:51.648Z,47.66
2022-09-13T07:54:20.884Z,50.94
2022-09-13T07:56:50.740Z,50.71
2022-09-13T07:59:19.859Z,48.23
2022-09-13T08:01:52.517Z,50.57
2022-09-13T08:04:24.812Z,50.53
2022-09-13T08:06:52.643Z,49.49
2022-09-13T08:09:21.065Z,51.11
2022-09-13T08:11:53.345Z,51.05
2022-09-13T08:14:23.145Z,52.51
2022-09-13T08:16:51.584Z,53.07
2022-09-13T08:19:19.937Z,52.95
2022-09-13T08:21:48.286Z,52.92
2022-09-13T08:27:09.791Z,52.24
2022-09-13T08:29:37.554Z,49.32
2022-09-13T08:32:05.417Z,52.95
2022-09-13T08:34:33.569Z,52.44
2022-09-13T08:37:04.603Z,51.43
2022-09-13T08:39:33.594Z,51.90
2022-09-13T08:42:16.297Z,49.53
2022-09-13T08:44:48.805Z,50.30
2022-09-13T08:47:40.970Z,52.90
2022-09-13T08:50:19.036Z,51.46
2022-09-13T08:53:06.231Z,50.21
2022-09-13T08:55:53.490Z,53.90
2022-09-13T08:58:44.637Z,53.20
2022-09-13T09:01:39.529Z,48.19
2022-09-13T09:04:34.196Z,53.32
2022-09-13T09:07:10.540Z,48.67
2022-09-13T09:09:47.167Z,48.80
2022-09-13T09:12:24.161Z,52.31
2022-09-13T09:15:03.909Z,53.36
2022-09-13T09:17:53.337Z,51.30
2022-09-13T09:20:42.828Z,52.90
2022-09-13T09:23:22.309Z,53.79
2022-09-13T09:25:58.581Z,53.34
2022-09-13T09:28:27.356Z,52.87
2022-09-13T09:31:09.125Z,50.08
2022-09-13T09:33:55.328Z,52.11
2022-09-13T09:36:46.550Z,50.61
2022-09-13T09:39:16.665Z,52.03
2022-09-13T09:41:45.359Z,53.16
2022-09-13T09:44:27.729Z,50.98
2022-09-13T09:47:00.622Z,50.61
2022-09-13T09:50:01.613Z,52.61
2022-09-13T09:52:37.374Z,50.69
2022-09-13T09:55:21.370Z,54.28
2022-09-13T09:57:52.374Z,52.47
2022-09-13T10:00:21.114Z,51.09
2022-09-13T10:02:52.214Z,53.55
2022-09-13T10:05:23.268Z,53.40
2022-09-13T10:08:00.909Z,51.25
2022-09-13T10:10:37.075Z,53.17
2022-09-13T10:13:08.563Z,49.38
2022-09-13T10:15:36.344Z,51.93
2022-09-13T10:18:42.294Z,52.80
2022-09-13T10:21:18.312Z,52.04
2022-09-13T10:23:48.641Z,50.80
2022-09-13T10:26:25.961Z,51.65
2022-09-13T10:29:01.186Z,52.96
2022-09-13T10:31:35.000Z,52.82
2022-09-13T10:34:04.211Z,51.88
2022-09-13T10:36:51.599Z,52.64
2022-09-13T10:39:22.660Z,52.27
2022-09-13T10:41:58.459Z,53.05
2022-09-13T10:44:41.203Z,51.90
2022-09-13T10:47:22.439Z,50.55
2022-09-13T10:50:02.376Z,51.32
2022-09-13T10:52:44.396Z,53.42
2022-09-13T10:55:15.309Z,51.57
2022-09-13T10:57:43.833Z,52.70
2022-09-13T11:00:20.341Z,53.11
2022-09-13T11:03:06.751Z,52.15
2022-09-13T11:06:13.325Z,53.63
2022-09-13T11:09:05.635Z,53.76
2022-09-13T11:12:04.100Z,53.91
2022-09-13T11:14:43.546Z,54.06
2022-09-13T11:17:49.056Z,52.83
2022-09-13T11:20:30.511Z,53.48
2022-09-13T11:23:30.532Z,52.20
2022-09-13T11:26:15.917Z,51.80
2022-09-13T11:29:21.364Z,52.78
2022-09-13T11:32:18.600Z,53.23
2022-09-13T11:34:57.973Z,53.06
2022-09-13T11:37:48.450Z,53.42
2022-09-13T11:40:29.675Z,53.22
2022-09-13T11:43:10.063Z,52.92
2022-09-13T11:45:55.105Z,51.93
2022-09-13T11:48:29.311Z,53.11
2022-09-13T11:51:15.517Z,52.83
2022-09-13T11:53:46.274Z,53.20
2022-09-13T11:56:52.376Z,52.23
2022-09-13T11:59:27.959Z,54.05
2022-09-13T12:02:00.421Z,53.03
2022-09-13T12:04:35.245Z,52.96
2022-09-13T12:07:09.772Z,54.32
2022-09-13T12:09:45.477Z,53.32
2022-09-13T12:12:14.379Z,54.78
2022-09-13T12:15:11.735Z,53.24
2022-09-13T12:17:46.560Z,53.37
2022-09-13T12:20:32.817Z,53.97
2022-09-13T12:23:03.505Z,54.20
2022-09-13T12:26:03.600Z,54.41
2022-09-13T12:28:45.105Z,54.30
2022-09-13T12:31:35.583Z,53.93
2022-09-13T12:34:08.463Z,53.70
2022-09-13T12:36:59.447Z,54.01
2022-09-13T12:39:36.181Z,54.02
2022-09-13T12:48:42.365Z,53.78
2022-09-13T12:51:31.465Z,54.42
2022-09-13T12:54:43.321Z,54.91
2022-09-13T12:57:24.555Z,54.35
2022-09-13T13:00:20.096Z,54.97
2022-09-13T13:02:54.437Z,54.09
2022-09-13T13:05:37.672Z,54.56
2022-09-13T13:08:27.532Z,54.89
2022-09-13T13:11:03.939Z,54.66
2022-09-13T13:13:41.398Z,54.47
2022-09-13T13:16:33.358Z,53.98
2022-09-13T13:19:25.913Z,54.46
2022-09-13T13:21:54.998Z,54.10
2022-09-13T13:24:23.035Z,54.33
2022-09-13T13:29:40.512Z,54.07
2022-09-13T13:32:12.746Z,53.40
2022-09-13T13:34:47.366Z,53.46
2022-09-13T13:37:15.207Z,53.85
2022-09-13T13:39:48.006Z,53.44
2022-09-13T13:42:28.783Z,53.48
2022-09-13T13:44:58.785Z,53.50
2022-09-13T13:47:29.532Z,53.16
2022-09-13T13:50:00.871Z,53.04
2022-09-13T13:52:37.971Z,53.51
2022-09-13T13:55:43.471Z,54.22
2022-09-13T13:58:25.574Z,53.98
2022-09-13T14:00:55.507Z,53.53
2022-09-13T14:03:29.551Z,53.78
2022-09-13T14:06:18.616Z,53.35
2022-09-13T14:11:50.427Z,54.00
2022-09-13T14:14:36.152Z,53.77
2022-09-13T14:17:22.396Z,54.59
2022-09-13T14:19:57.242Z,54.70
2022-09-13T14:22:29.663Z,54.77
2022-09-13T14:25:12.915Z,54.51
2022-09-13T14:27:44.265Z,54.74
2022-09-13T14:30:35.250Z,55.31
2022-09-13T14:33:05.611Z,55.16
2022-09-13T14:35:37.533Z,55.68
2022-09-13T14:38:11.263Z,56.09
2022-09-13T14:40:39.932Z,56.71
2022-09-13T14:43:21.778Z,57.31
2022-09-13T14:45:58.445Z,57.46
2022-09-13T14:48:32.928Z,58.18
2022-09-13T14:51:09.925Z,58.83
2022-09-13T14:53:40.223Z,58.94
2022-09-13T14:56:16.005Z,60.00
2022-09-13T15:01:41.128Z,60.18
2022-09-13T15:04:09.437Z,61.15
2022-09-13T15:06:39.448Z,61.79
2022-09-13T15:09:10.556Z,61.19
2022-09-13T15:11:55.481Z,61.37
2022-09-13T15:14:32.880Z,63.83
2022-09-13T15:17:10.844Z,62.65
2022-09-13T15:19:42.996Z,61.73
2022-09-13T15:22:19.378Z,63.58
2022-09-13T15:24:53.769Z,63.24
2022-09-13T15:27:29.090Z,64.00
2022-09-13T15:30:04.558Z,62.88
2022-09-13T15:32:42.579Z,65.10
2022-09-13T15:35:29.671Z,64.70
2022-09-13T15:38:02.695Z,65.11
2022-09-13T15:40:41.753Z,66.63
2022-09-13T15:43:09.673Z,67.94
2022-09-13T15:45:37.874Z,67.77
2022-09-13T15:48:08.409Z,66.70
2022-09-13T15:50:37.363Z,67.88
2022-09-13T15:53:12.090Z,67.56
2022-09-13T15:55:40.277Z,64.50
2022-09-13T15:58:10.656Z,68.69
2022-09-13T16:00:38.471Z,64.75
2022-09-13T16:03:06.605Z,67.33
2022-09-13T16:05:36.367Z,69.72
2022-09-13T16:08:04.170Z,68.61
2022-09-13T16:10:34.468Z,66.61
2022-09-13T16:13:02.253Z,68.90
2022-09-13T16:15:30.052Z,65.65
2022-09-13T16:17:58.147Z,68.79
2022-09-13T16:20:27.988Z,68.64
2022-09-13T16:22:55.818Z,69.75
2022-09-13T16:25:23.987Z,66.94
2022-09-13T16:27:53.759Z,66.57
2022-09-13T16:30:22.614Z,64.46
2022-09-13T16:32:50.431Z,69.18
2022-09-13T16:35:19.090Z,65.82
2022-09-13T16:37:51.603Z,66.10
2022-09-13T16:40:20.160Z,66.79
2022-09-13T16:42:48.205Z,68.91
2022-09-13T16:45:16.220Z,65.76
2022-09-13T16:47:44.470Z,64.96
2022-09-13T16:50:12.405Z,67.71
2022-09-13T16:52:40.206Z,68.24
2022-09-13T16:55:08.836Z,65.40
2022-09-13T16:57:38.214Z,66.73
2022-09-13T17:00:10.523Z,66.45
2022-09-13T17:02:39.510Z,65.57
2022-09-13T17:05:08.764Z,68.34
2022-09-13T17:07:37.292Z,69.32
2022-09-13T17:10:07.450Z,69.08
2022-09-13T17:12:35.393Z,70.34
2022-09-13T17:15:03.223Z,68.33
2022-09-13T17:17:36.407Z,70.31
2022-09-13T17:20:10.663Z,69.11
2022-09-13T17:22:39.481Z,71.68
2022-09-13T17:25:08.312Z,68.95
2022-09-13T17:27:36.517Z,67.93
2022-09-13T17:32:50.731Z,73.73
2022-09-13T17:35:18.899Z,69.20
2022-09-13T17:37:46.764Z,68.21
2022-09-13T17:40:14.709Z,75.76
2022-09-13T17:45:27.860Z,69.95
2022-09-13T17:47:57.206Z,69.37
2022-09-13T17:50:25.136Z,68.98
2022-09-13T17:52:53.000Z,76.62
2022-09-13T17:55:21.219Z,73.79
2022-09-13T17:57:50.204Z,74.62
2022-09-13T18:00:20.035Z,73.27
2022-09-13T18:02:48.261Z,74.99
2022-09-13T18:05:16.248Z,73.50
2022-09-13T18:07:44.091Z,77.70
2022-09-13T18:10:25.574Z,71.87
2022-09-13T18:13:00.535Z,73.09
2022-09-13T18:15:28.824Z,76.08
2022-09-13T18:17:56.706Z,79.72
2022-09-13T18:20:24.690Z,73.40
2022-09-13T18:22:52.997Z,76.70
2022-09-13T18:25:23.824Z,69.42
2022-09-13T18:27:52.057Z,71.58
2022-09-13T18:30:19.878Z,75.10
2022-09-13T18:32:48.537Z,69.42
2022-09-13T18:35:16.953Z,72.44
2022-09-13T18:37:44.772Z,71.14
2022-09-13T18:40:14.445Z,73.28
2022-09-13T18:42:45.115Z,69.63
2022-09-13T18:45:13.162Z,70.81
2022-09-13T18:47:40.957Z,69.15
2022-09-13T18:50:11.627Z,67.58
2022-09-13T18:52:40.567Z,71.08
2022-09-13T18:55:11.231Z,75.59
2022-09-13T18:57:39.339Z,76.07
2022-09-13T19:00:07.691Z,71.29
2022-09-13T19:02:44.096Z,70.86
2022-09-13T19:05:20.427Z,70.89
2022-09-13T19:07:48.294Z,73.08
2022-09-13T19:10:16.346Z,69.55
2022-09-13T19:12:47.539Z,68.67
2022-09-13T19:15:15.411Z,73.65
2022-09-13T19:17:43.172Z,70.42
2022-09-13T19:20:11.341Z,73.98
2022-09-13T19:22:39.159Z,74.06
2022-09-13T19:25:07.294Z,72.45
2022-09-13T19:27:35.416Z,74.02
2022-09-13T19:30:03.244Z,73.83
2022-09-13T19:32:34.641Z,77.44
2022-09-13T19:35:02.837Z,74.77
2022-09-13T19:37:30.782Z,75.96
2022-09-13T19:39:58.730Z,70.93
2022-09-13T19:42:26.904Z,70.95
2022-09-13T19:44:54.738Z,71.77
2022-09-13T19:48:13.006Z,72.91
2022-09-13T19:50:11.286Z,74.08
2022-09-13T19:52:39.139Z,72.33
2022-09-13T19:55:07.360Z,71.79
2022-09-13T19:57:35.569Z,72.26
2022-09-13T20:00:04.616Z,75.93
2022-09-13T20:02:35.178Z,74.25
2022-09-13T20:05:03.424Z,72.53
2022-09-13T20:07:31.210Z,70.19
2022-09-13T20:09:59.042Z,71.34
2022-09-13T20:12:27.154Z,70.37
2022-09-13T20:14:54.926Z,69.75
2022-09-13T20:17:22.789Z,68.90
2022-09-13T20:19:51.008Z,69.45
2022-09-13T20:22:18.865Z,71.85
2022-09-13T20:24:46.582Z,71.84
2022-09-13T20:27:14.668Z,74.48
2022-09-13T20:29:42.456Z,71.64
2022-09-13T20:32:12.564Z,69.41
2022-09-13T20:34:40.710Z,69.69
2022-09-13T20:37:08.465Z,70.90
2022-09-13T20:39:36.286Z,72.33
2022-09-13T20:42:04.498Z,70.64
2022-09-13T20:44:32.180Z,69.46
2022-09-13T20:47:00.589Z,69.70
2022-09-13T20:49:30.512Z,71.56
2022-09-13T20:51:58.284Z,73.38
2022-09-13T20:54:26.560Z,76.32
2022-09-13T20:56:54.676Z,70.47
2022-09-13T20:59:22.990Z,70.61
2022-09-13T21:01:51.150Z,71.12
2022-09-13T21:04:19.359Z,72.41
2022-09-13T21:07:05.567Z,72.99
2022-09-13T21:09:33.871Z,71.37
2022-09-13T21:12:02.203Z,70.85
2022-09-13T21:14:32.516Z,73.38
2022-09-13T21:17:00.851Z,71.88
2022-09-13T21:19:29.650Z,74.06
2022-09-13T21:21:57.624Z,71.77
2022-09-13T21:24:25.873Z,71.67
2022-09-13T21:26:53.890Z,72.01
2022-09-13T21:29:21.754Z,71.17
2022-09-13T21:31:49.837Z,76.93
2022-09-13T21:34:19.124Z,76.93
2022-09-13T21:36:47.545Z,71.70
2022-09-13T21:39:16.682Z,74.97
2022-09-13T21:41:44.560Z,72.04
2022-09-13T21:44:12.431Z,76.19
2022-09-13T21:46:41.269Z,71.79
2022-09-13T21:49:12.256Z,72.00
2022-09-13T21:51:43.567Z,72.90
2022-09-13T21:54:14.553Z,72.45
2022-09-13T21:56:45.028Z,75.45
2022-09-13T21:59:15.067Z,72.43
2022-09-13T22:01:47.124Z,75.06
2022-09-13T22:04:19.445Z,73.24
2022-09-13T22:06:51.716Z,76.82
2022-09-13T22:09:21.841Z,74.87
2022-09-13T22:11:50.163Z,75.88
2022-09-13T22:14:21.952Z,73.41
2022-09-13T22:16:53.079Z,75.36
2022-09-13T22:19:24.947Z,78.60
2022-09-13T22:21:59.517Z,73.66
2022-09-13T22:24:29.947Z,78.70
2022-09-13T22:26:59.367Z,73.75
2022-09-13T22:29:27.648Z,73.40
2022-09-13T22:31:55.879Z,76.85
2022-09-13T22:34:26.283Z,73.64
2022-09-13T22:36:55.740Z,72.78
2022-09-13T22:39:23.708Z,78.15
2022-09-13T22:41:52.059Z,73.79
2022-09-13T22:44:19.818Z,73.44
2022-09-13T22:46:47.625Z,73.74
2022-09-13T22:49:20.157Z,76.72
2022-09-13T22:51:48.700Z,72.58
2022-09-13T22:54:18.551Z,72.18
2022-09-13T22:56:46.757Z,76.69
2022-09-13T22:59:17.369Z,73.67
2022-09-13T23:01:48.727Z,74.00
2022-09-13T23:04:16.906Z,73.39
2022-09-13T23:06:45.347Z,73.93
2022-09-13T23:09:18.911Z,76.86
2022-09-13T23:11:47.498Z,75.04
2022-09-13T23:14:17.461Z,79.79
2022-09-13T23:16:49.358Z,78.03
2022-09-13T23:19:19.629Z,76.59
2022-09-13T23:21:47.401Z,74.16
2022-09-13T23:24:17.710Z,73.81
2022-09-13T23:26:47.486Z,73.65
2022-09-13T23:29:18.487Z,73.76
2022-09-13T23:31:47.840Z,74.26
2022-09-13T23:34:17.975Z,74.61
2022-09-13T23:36:46.977Z,79.88
2022-09-13T23:39:17.683Z,73.77
2022-09-13T23:41:47.476Z,74.59
2022-09-13T23:44:16.527Z,73.47
2022-09-13T23:46:45.155Z,74.12
2022-09-13T23:49:13.112Z,76.62
2022-09-13T23:51:41.749Z,75.49
2022-09-13T23:54:10.352Z,81.01
2022-09-13T23:56:38.080Z,78.17
2022-09-13T23:59:06.855Z,72.73
